createdAt,value
2022-09-28T00:02:57.907Z,96.50
2022-09-28T00:07:14.214Z,96.50
2022-09-28T00:09:40.952Z,96.50
2022-09-28T00:12:57.105Z,96.50
2022-09-28T00:14:57.888Z,96.40
2022-09-28T00:16:59.597Z,96.40
2022-09-28T00:18:26.031Z,96.40
2022-09-28T00:20:55.081Z,96.40
2022-09-28T00:23:51.997Z,96.50
2022-09-28T00:26:09.643Z,96.50
2022-09-28T00:28:41.248Z,96.40
2022-09-28T00:31:37.387Z,96.40
2022-09-28T00:35:04.716Z,96.40
2022-09-28T00:38:02.248Z,96.40
2022-09-28T00:47:01.585Z,96.40
2022-09-28T00:56:35.637Z,96.70
2022-09-28T01:00:55.178Z,96.60
2022-09-28T01:02:24.258Z,96.60
2022-09-28T01:04:42.969Z,96.70
2022-09-28T01:08:23.178Z,96.81
2022-09-28T01:13:19.969Z,96.91
2022-09-28T01:14:46.827Z,96.81
2022-09-28T01:17:06.489Z,96.81
2022-09-28T01:20:23.914Z,96.91
2022-09-28T01:24:12.341Z,96.81
2022-09-28T01:26:32.081Z,96.81
2022-09-28T01:42:38.657Z,96.91
2022-09-28T01:50:07.842Z,96.81
2022-09-28T01:53:02.287Z,96.95
2022-09-28T01:55:22.981Z,96.91
2022-09-28T02:00:10.289Z,97.02
2022-09-28T02:02:09.774Z,96.91
2022-09-28T02:07:10.699Z,96.75
2022-09-28T02:09:11.550Z,96.70
2022-09-28T02:10:58.410Z,96.70
2022-09-28T02:14:16.800Z,96.70
2022-09-28T02:20:14.992Z,96.70
2022-09-28T02:22:42.790Z,96.60
2022-09-28T02:24:13.000Z,96.65
2022-09-28T02:28:25.583Z,96.44
2022-09-28T02:32:54.054Z,96.34
2022-09-28T02:34:53.976Z,96.23
2022-09-28T02:36:23.048Z,96.14
2022-09-28T02:38:24.905Z,96.14
2022-09-28T02:42:10.757Z,96.03
2022-09-28T02:53:47.558Z,96.03
2022-09-28T02:57:44.688Z,95.93
2022-09-28T03:00:42.359Z,95.93
2022-09-28T03:02:14.268Z,95.93
2022-09-28T03:05:11.010Z,95.72
2022-09-28T03:07:29.066Z,95.62
2022-09-28T03:09:04.049Z,95.52
2022-09-28T03:11:03.886Z,95.52
2022-09-28T03:12:53.536Z,95.52
2022-09-28T03:14:53.513Z,95.52
2022-09-28T03:16:28.324Z,95.42
2022-09-28T03:17:57.488Z,95.42
2022-09-28T03:21:36.464Z,95.52
2022-09-28T03:23:23.699Z,95.42
2022-09-28T03:29:32.128Z,95.52
2022-09-28T03:32:00.542Z,95.52
2022-09-28T03:33:57.531Z,95.52
2022-09-28T03:35:48.079Z,95.62
2022-09-28T03:39:22.490Z,95.52
2022-09-28T03:40:51.423Z,95.62
2022-09-28T03:53:14.251Z,95.72
2022-09-28T03:59:50.271Z,96.14
2022-09-28T04:01:38.953Z,96.14
2022-09-28T04:05:08.457Z,96.14
2022-09-28T04:07:13.249Z,96.23
2022-09-28T04:09:44.529Z,96.14
2022-09-28T04:14:06.892Z,96.23
2022-09-28T04:15:38.746Z,96.23
2022-09-28T04:19:30.586Z,96.39
2022-09-28T04:25:39.901Z,96.59
2022-09-28T04:28:05.576Z,96.69
2022-09-28T04:30:45.006Z,96.69
2022-09-28T04:32:47.957Z,96.69
2022-09-28T04:35:08.878Z,96.69
2022-09-28T04:36:37.663Z,96.80
2022-09-28T04:38:07.335Z,96.80
2022-09-28T04:41:55.826Z,97.00
2022-09-28T04:43:46.595Z,97.00
2022-09-28T04:46:27.540Z,97.00
2022-09-28T04:48:17.035Z,97.00
2022-09-28T04:49:47.013Z,97.00
2022-09-28T04:52:08.515Z,97.10
2022-09-28T04:53:40.112Z,97.10
2022-09-28T04:56:45.814Z,97.00
2022-09-28T04:58:17.646Z,97.00
2022-09-28T05:00:40.030Z,97.10
2022-09-28T05:02:49.039Z,97.10
2022-09-28T05:09:04.569Z,97.15
2022-09-28T05:13:54.742Z,97.15
2022-09-28T05:15:47.606Z,97.15
2022-09-28T05:18:25.258Z,97.05
2022-09-28T05:20:10.492Z,97.15
2022-09-28T05:22:30.160Z,97.15
2022-09-28T05:25:05.998Z,97.25
2022-09-28T05:30:25.930Z,97.36
2022-09-28T05:36:43.353Z,97.36
2022-09-28T05:38:12.743Z,97.36
2022-09-28T05:40:12.114Z,97.25
2022-09-28T05:41:41.834Z,97.25
2022-09-28T05:44:09.993Z,97.25
2022-09-28T05:46:09.474Z,97.15
2022-09-28T05:52:20.476Z,96.94
2022-09-28T05:54:19.694Z,97.05
2022-09-28T05:55:49.900Z,97.05
2022-09-28T05:57:17.412Z,97.05
2022-09-28T06:00:17.959Z,97.05
2022-09-28T06:02:15.845Z,97.05
2022-09-28T06:04:36.463Z,97.05
2022-09-28T06:07:59.855Z,97.15
2022-09-28T06:10:00.252Z,97.15
2022-09-28T06:13:38.899Z,97.15
2022-09-28T06:16:41.727Z,97.15
2022-09-28T06:18:08.548Z,97.15
2022-09-28T06:21:32.879Z,97.15
2022-09-28T06:24:51.116Z,97.25
2022-09-28T06:30:31.020Z,97.56
2022-09-28T06:32:04.206Z,97.56
2022-09-28T06:34:32.495Z,97.56
2022-09-28T06:36:00.429Z,97.56
2022-09-28T06:39:19.280Z,97.56
2022-09-28T06:42:44.155Z,97.56
2022-09-28T06:44:14.080Z,97.45
2022-09-28T06:46:16.833Z,97.45
2022-09-28T06:51:23.928Z,97.25
2022-09-28T06:53:42.884Z,97.25
2022-09-28T06:56:31.984Z,97.25
2022-09-28T06:57:35.732Z,97.25
2022-09-28T07:04:12.355Z,97.31
2022-09-28T07:09:31.351Z,97.52
2022-09-28T07:12:20.205Z,97.52
2022-09-28T07:14:49.362Z,97.62
2022-09-28T07:16:21.555Z,97.62
2022-09-28T07:18:00.283Z,97.52
2022-09-28T07:20:54.293Z,97.41
2022-09-28T07:22:50.375Z,97.41
2022-09-28T07:24:48.182Z,97.27
2022-09-28T07:27:17.076Z,97.27
2022-09-28T07:29:16.472Z,97.16
2022-09-28T07:31:18.260Z,97.16
2022-09-28T07:32:46.058Z,97.27
2022-09-28T07:37:13.532Z,97.27
2022-09-28T07:39:13.255Z,97.27
2022-09-28T07:44:26.626Z,96.95
2022-09-28T07:49:44.607Z,97.06
2022-09-28T07:51:14.578Z,97.02
2022-09-28T07:53:04.435Z,96.75
2022-09-28T07:59:45.401Z,95.93
2022-09-28T08:03:14.434Z,95.57
2022-09-28T08:04:40.617Z,95.42
2022-09-28T08:06:11.427Z,95.10
2022-09-28T08:08:07.291Z,94.80
2022-09-28T08:09:36.328Z,94.90
2022-09-28T08:12:33.971Z,95.06
2022-09-28T08:14:33.707Z,95.06
2022-09-28T08:17:03.362Z,94.96
2022-09-28T08:19:03.158Z,94.96
2022-09-28T08:24:19.765Z,94.96
2022-09-28T08:26:50.744Z,95.02
2022-09-28T08:41:16.468Z,93.89
2022-09-28T08:54:55.009Z,92.41
2022-09-28T09:01:42.910Z,91.65
2022-09-28T09:03:12.084Z,91.55
2022-09-28T09:05:02.704Z,91.35
2022-09-28T09:07:38.354Z,91.30
2022-09-28T09:10:27.699Z,91.30
2022-09-28T09:11:57.640Z,90.58
2022-09-28T09:13:27.837Z,90.48
2022-09-28T09:14:59.418Z,90.37
2022-09-28T09:17:00.456Z,90.37
2022-09-28T09:21:12.728Z,90.34
2022-09-28T09:24:38.501Z,90.44
2022-09-28T09:28:48.832Z,89.89
2022-09-28T09:30:37.527Z,89.89
2022-09-28T09:32:34.525Z,90.19
2022-09-28T09:37:35.460Z,89.84
2022-09-28T09:42:43.397Z,87.38
2022-09-28T09:44:14.790Z,87.55
2022-09-28T09:47:04.200Z,87.96
2022-09-28T09:48:33.906Z,87.76
2022-09-28T09:50:06.864Z,87.45
2022-09-28T09:52:21.409Z,87.04
2022-09-28T09:54:51.953Z,87.30
2022-09-28T09:59:41.888Z,87.00
2022-09-28T10:01:39.929Z,86.59
2022-09-28T10:04:08.150Z,86.35
2022-09-28T10:11:11.258Z,85.02
2022-09-28T10:12:41.376Z,85.32
2022-09-28T10:14:32.592Z,85.63
2022-09-28T10:16:00.585Z,85.94
2022-09-28T10:18:19.483Z,86.35
2022-09-28T10:21:49.198Z,86.04
2022-09-28T10:23:50.850Z,85.94
2022-09-28T10:28:14.690Z,85.63
2022-09-28T10:32:19.445Z,86.04
2022-09-28T10:35:21.426Z,85.63
2022-09-28T10:36:50.445Z,85.53
2022-09-28T10:38:50.420Z,85.42
2022-09-28T10:41:56.268Z,84.98
2022-09-28T10:46:13.181Z,83.78
2022-09-28T10:47:44.813Z,83.53
2022-09-28T10:49:11.894Z,81.56
2022-09-28T10:50:45.953Z,81.04
2022-09-28T10:52:14.855Z,81.21
2022-09-28T10:54:42.830Z,81.31
2022-09-28T10:56:15.901Z,81.21
2022-09-28T10:58:43.692Z,81.31
2022-09-28T11:00:13.597Z,81.62
2022-09-28T11:02:42.812Z,82.64
2022-09-28T11:05:09.658Z,82.64
2022-09-28T11:06:38.550Z,82.74
2022-09-28T11:09:35.485Z,83.56
2022-09-28T11:12:32.256Z,82.33
2022-09-28T11:15:30.399Z,80.74
2022-09-28T11:17:00.493Z,79.82
2022-09-28T11:18:30.289Z,80.13
2022-09-28T11:21:16.894Z,79.52
2022-09-28T11:23:35.506Z,79.11
2022-09-28T11:25:33.427Z,80.33
2022-09-28T11:27:32.392Z,79.99
2022-09-28T11:31:22.636Z,79.07
2022-09-28T11:35:08.710Z,78.77
2022-09-28T11:36:38.621Z,77.75
2022-09-28T11:38:27.370Z,77.64
2022-09-28T11:40:54.319Z,77.55
2022-09-28T11:45:49.672Z,76.93
2022-09-28T11:48:07.257Z,75.81
2022-09-28T11:52:29.867Z,75.40
2022-09-28T11:53:59.830Z,75.60
2022-09-28T11:55:29.873Z,75.78
2022-09-28T12:03:13.136Z,76.90
2022-09-28T12:05:18.357Z,76.59
2022-09-28T12:09:41.654Z,75.57
2022-09-28T12:18:41.614Z,77.44
2022-09-28T12:26:05.581Z,75.37
2022-09-28T12:27:34.470Z,74.01
2022-09-28T12:29:04.420Z,74.01
2022-09-28T12:35:39.896Z,75.40
2022-09-28T12:37:59.488Z,74.24
2022-09-28T12:40:27.521Z,75.90
2022-09-28T12:42:26.892Z,76.00
2022-09-28T12:44:45.293Z,71.88
2022-09-28T12:46:15.211Z,71.88
2022-09-28T12:52:02.586Z,74.55
2022-09-28T12:54:50.101Z,74.04
2022-09-28T12:56:49.009Z,74.44
2022-09-28T12:58:19.342Z,71.70
2022-09-28T13:00:16.745Z,72.01
2022-09-28T13:06:01.472Z,72.89
2022-09-28T13:11:50.511Z,70.76
2022-09-28T13:14:55.391Z,73.19
2022-09-28T13:17:14.980Z,71.77
2022-09-28T13:18:43.880Z,71.26
2022-09-28T13:20:33.615Z,70.55
2022-09-28T13:22:34.301Z,70.35
2022-09-28T13:28:11.775Z,68.93
2022-09-28T13:31:30.777Z,69.00
2022-09-28T13:34:17.672Z,71.60
2022-09-28T13:36:35.398Z,70.79
2022-09-28T13:38:04.518Z,68.46
2022-09-28T13:40:08.267Z,71.67
2022-09-28T13:43:27.951Z,69.54
2022-09-28T13:46:59.403Z,68.43
2022-09-28T13:50:36.008Z,68.43
2022-09-28T13:53:54.134Z,66.94
2022-09-28T13:59:06.205Z,67.95
2022-09-28T14:00:34.739Z,67.98
2022-09-28T14:02:07.327Z,69.00
2022-09-28T14:05:18.577Z,70.32
2022-09-28T14:10:27.154Z,70.55
2022-09-28T14:12:26.139Z,68.90
2022-09-28T14:15:50.713Z,71.44
2022-09-28T14:22:26.923Z,70.72
2022-09-28T14:28:31.945Z,70.52
2022-09-28T14:34:40.886Z,70.25
2022-09-28T14:36:14.166Z,71.16
2022-09-28T14:41:01.682Z,71.57
2022-09-28T14:43:20.058Z,71.77
2022-09-28T14:45:17.369Z,71.97
2022-09-28T14:47:16.246Z,72.21
2022-09-28T14:48:46.099Z,70.79
2022-09-28T14:50:48.838Z,70.48
2022-09-28T14:54:36.977Z,67.03
2022-09-28T14:56:45.856Z,67.54
2022-09-28T14:59:12.535Z,67.54
2022-09-28T15:01:39.233Z,67.03
2022-09-28T15:05:02.349Z,68.76
2022-09-28T15:06:30.997Z,68.96
2022-09-28T15:08:50.473Z,68.45
2022-09-28T15:10:54.356Z,68.25
2022-09-28T15:13:44.105Z,70.21
2022-09-28T15:17:37.018Z,71.43
2022-09-28T15:19:32.729Z,71.33
2022-09-28T15:21:03.586Z,70.92
2022-09-28T15:23:30.788Z,69.20
2022-09-28T15:26:19.610Z,69.30
2022-09-28T15:29:17.862Z,70.45
2022-09-28T15:35:55.987Z,70.45
2022-09-28T15:37:24.041Z,71.47
2022-09-28T15:40:52.602Z,72.17
2022-09-28T15:42:55.866Z,72.08
2022-09-28T15:44:20.472Z,72.89
2022-09-28T15:45:50.386Z,73.70
2022-09-28T15:47:51.180Z,72.52
2022-09-28T15:49:19.579Z,72.62
2022-09-28T15:54:29.408Z,74.15
2022-09-28T15:55:56.767Z,74.65
2022-09-28T15:59:14.680Z,75.98
2022-09-28T16:01:44.905Z,77.60
2022-09-28T16:03:16.671Z,78.01
2022-09-28T16:10:30.671Z,78.76
2022-09-28T16:14:15.659Z,79.57
2022-09-28T16:17:03.310Z,80.79
2022-09-28T16:20:19.830Z,81.20
2022-09-28T16:26:27.851Z,81.85
2022-09-28T16:28:43.819Z,82.26
2022-09-28T16:31:41.271Z,82.15
2022-09-28T16:33:11.145Z,82.05
2022-09-28T16:36:35.855Z,82.35
2022-09-28T16:40:26.861Z,83.01
2022-09-28T16:47:53.089Z,83.62
2022-09-28T16:50:27.570Z,83.76
2022-09-28T16:52:26.525Z,84.06
2022-09-28T16:54:13.531Z,84.27
2022-09-28T16:56:02.630Z,84.67
2022-09-28T16:57:36.276Z,85.13
2022-09-28T17:01:05.469Z,85.43
2022-09-28T17:04:36.067Z,85.84
2022-09-28T17:07:56.382Z,86.08
2022-09-28T17:09:24.231Z,86.18
2022-09-28T17:12:20.613Z,86.18
2022-09-28T17:14:19.381Z,85.88
2022-09-28T17:20:43.367Z,85.71
2022-09-28T17:22:42.538Z,85.61
2022-09-28T17:25:59.246Z,85.41
2022-09-28T17:28:48.939Z,85.30
2022-09-28T17:32:38.835Z,84.18
2022-09-28T17:35:46.980Z,83.67
2022-09-28T17:38:35.700Z,83.87
2022-09-28T17:40:07.544Z,83.98
2022-09-28T17:45:55.212Z,82.55
2022-09-28T17:49:10.155Z,82.14
2022-09-28T17:50:42.171Z,80.65
2022-09-28T17:55:03.913Z,80.34
2022-09-28T17:57:22.583Z,81.71
2022-09-28T18:01:14.976Z,84.26
2022-09-28T18:04:33.312Z,85.18
2022-09-28T18:06:44.205Z,86.51
2022-09-28T18:09:22.213Z,87.37
2022-09-28T18:13:18.954Z,87.88
2022-09-28T18:18:14.522Z,87.61
2022-09-28T18:24:46.821Z,88.47
2022-09-28T18:27:27.239Z,88.78
2022-09-28T18:30:17.856Z,89.09
2022-09-28T18:33:07.571Z,89.59
2022-09-28T18:34:39.007Z,89.70
2022-09-28T18:36:44.347Z,89.80
2022-09-28T18:44:55.713Z,91.64
2022-09-28T18:51:49.369Z,92.87
2022-09-28T18:53:52.028Z,93.28
2022-09-28T18:55:38.022Z,93.52
2022-09-28T18:57:35.879Z,93.84
2022-09-28T18:59:25.642Z,94.04
2022-09-28T19:01:49.855Z,94.14
2022-09-28T19:04:10.393Z,94.24
2022-09-28T19:06:10.288Z,94.45
2022-09-28T19:07:40.645Z,94.45
2022-09-28T19:11:11.090Z,94.55
2022-09-28T19:12:41.078Z,94.55
2022-09-28T19:26:30.524Z,95.10
2022-09-28T19:32:54.247Z,94.90
2022-09-28T19:34:24.385Z,94.90
2022-09-28T19:38:40.574Z,95.10
2022-09-28T19:46:16.900Z,94.95
2022-09-28T19:49:43.642Z,95.05
2022-09-28T19:51:13.144Z,95.15
2022-09-28T19:54:36.566Z,95.46
2022-09-28T19:56:40.115Z,95.46
2022-09-28T19:58:09.094Z,95.46
2022-09-28T20:00:08.680Z,95.56
2022-09-28T20:02:39.071Z,95.76
2022-09-28T20:08:20.131Z,95.70
2022-09-28T20:13:09.092Z,95.70
2022-09-28T20:15:13.189Z,95.70
2022-09-28T20:16:41.229Z,95.81
2022-09-28T20:19:58.110Z,95.95
2022-09-28T20:22:16.784Z,96.16
2022-09-28T20:24:17.752Z,96.26
2022-09-28T20:27:26.561Z,96.47
2022-09-28T20:29:26.010Z,96.37
2022-09-28T20:30:57.831Z,96.51
2022-09-28T20:34:38.014Z,96.51
2022-09-28T20:37:21.378Z,96.51
2022-09-28T20:39:45.728Z,96.62
2022-09-28T20:41:54.569Z,96.62
2022-09-28T20:44:11.939Z,96.72
2022-09-28T20:47:33.352Z,96.72
2022-09-28T20:50:28.215Z,96.72
2022-09-28T20:51:57.148Z,96.72
2022-09-28T20:53:46.664Z,96.72
2022-09-28T20:56:34.820Z,96.87
2022-09-28T21:00:12.161Z,96.97
2022-09-28T21:01:41.092Z,96.97
2022-09-28T21:03:43.141Z,96.97
2022-09-28T21:05:14.060Z,97.07
2022-09-28T21:11:35.878Z,97.17
2022-09-28T21:18:12.442Z,97.32
2022-09-28T21:19:42.355Z,97.42
2022-09-28T21:26:45.033Z,97.63
2022-09-28T21:32:19.580Z,97.83
2022-09-28T21:33:49.553Z,97.83
2022-09-28T21:35:39.082Z,97.88
2022-09-28T21:38:24.716Z,97.88
2022-09-28T21:40:54.442Z,97.88
2022-09-28T21:47:47.646Z,98.08
2022-09-28T21:53:12.257Z,98.19
2022-09-28T21:55:10.283Z,98.19
2022-09-28T21:58:55.091Z,98.24
2022-09-28T22:03:49.662Z,98.13
2022-09-28T22:06:46.675Z,98.13
2022-09-28T22:08:47.422Z,98.24
2022-09-28T22:10:16.364Z,98.24
2022-09-28T22:11:46.259Z,98.24
2022-09-28T22:17:47.960Z,98.24
2022-09-28T22:19:37.678Z,98.28
2022-09-28T22:22:05.634Z,98.28
2022-09-28T22:24:01.798Z,98.28
2022-09-28T22:26:00.585Z,98.18
2022-09-28T22:27:59.381Z,98.18
2022-09-28T22:35:51.741Z,98.38
2022-09-28T22:37:18.842Z,98.38
2022-09-28T22:40:17.501Z,98.49
2022-09-28T22:41:46.379Z,98.59
2022-09-28T22:44:15.101Z,98.69
2022-09-28T22:46:17.091Z,98.69
2022-09-28T22:50:25.892Z,98.69
2022-09-28T22:54:22.818Z,98.79
2022-09-28T22:58:20.651Z,98.84
2022-09-28T23:01:17.538Z,98.94
2022-09-28T23:05:42.033Z,98.94
2022-09-28T23:07:10.913Z,98.94
2022-09-28T23:12:03.683Z,98.94
2022-09-28T23:13:34.477Z,98.94
2022-09-28T23:15:01.526Z,98.94
2022-09-28T23:18:00.218Z,98.99
2022-09-28T23:19:29.352Z,98.88
2022-09-28T23:21:29.368Z,98.79
2022-09-28T23:23:18.077Z,98.79
2022-09-28T23:26:37.007Z,98.79
2022-09-28T23:28:05.718Z,98.68
2022-09-28T23:29:35.866Z,98.68
2022-09-28T23:32:05.222Z,98.68
2022-09-28T23:38:08.851Z,98.58
2022-09-28T23:42:56.534Z,98.68
2022-09-28T23:47:41.370Z,98.88
2022-09-28T23:50:00.942Z,98.94
2022-09-28T23:52:31.108Z,99.05
2022-09-28T23:54:30.704Z,99.05
2022-09-28T23:55:57.650Z,99.15
